Terminal Aerodrome Forecast
Issued by NWS Blacksburg, VA

Home | Current Version | Previous Version | Text Only | Print | Product List | Glossary On
Versions: 1 2 3 4 5 6 7 8 9 10 11 12 13 14
000
FTUS41 KRNK 171129
TAFDAN
TAF
KDAN 171129Z 1712/1812 06006KT P6SM SKC
     FM171600 07009G16KT P6SM SKC
     FM180000 08006KT P6SM SCT250
     FM180800 05007KT P6SM BKN250=

USA.gov is the U.S. government's official web portal to all federal, state and local government web resources and services.